Terminal Aerodrome Forecast
Issued by NWS

Home | Current Version | Previous Version | Text Only | Print | Product List | Glossary On
Versions: 1 2 3 4 5 6 7 8 9 10 11 12 13 14 15 16 17 18 19 20 21
000
FTUS41 KPBZ 251700
TAFMGW
TAF
KMGW 251734Z 2518/2618 VRB05KT P6SM OVC025
     FM251900 VRB03KT 2SM -RASN BR OVC015
     FM260000 07005KT 2SM -RASN BR OVC008
     FM260600 08005KT 1SM -SN BR OVC004=

USA.gov is the U.S. government's official web portal to all federal, state and local government web resources and services.